Latest Weather Observations for Cooma Airport

IDN60801

Issued at 4:03 pm EST Saturday 2 July 2022 (issued every 10 minutes, with the page automatically refreshed every 10 minutes)

About weather observations | Map of weather stations | Latest weather observations for NSW | Other Formats
Station Details ID: 070217 Name: COOMA AIRPORT AWS Lat: -36.29 Lon: 148.97 Height: 930.0 m
Data from the previous 72 hours. | See also: Recent months at Cooma Airport
Date/Time
EST
Temp
°C
App
Temp
°C
Dew
Point
°C
Rel
Hum
%
Delta-T
°C
Wind Press
QNH
hPa
Press
MSL
hPa
Rain since
9am
mm
Dir  Spd
km/h
Gust
km/h
Spd
kts
Gust
kts
02/04:00pm 5.5 0.9 5.4 99 0.0 S 19 24 10 13 1025.8 1027.7 0.2
02/03:42pm 5.9 1.3 5.8 99 0.0 S 19 24 10 13 1025.8 1027.7 0.2
02/03:30pm 6.0 0.9 5.9 99 0.0 S 22 28 12 15 1025.6 1027.4 0.2
02/03:00pm 6.1 2.0 6.0 99 0.0 S 17 22 9 12 1025.7 1027.5 0.2
02/02:49pm 6.0 1.5 5.9 99 0.0 S 19 22 10 12 1025.7 1027.5 0.2
02/02:30pm 6.3 2.2 6.2 99 0.0 S 17 22 9 12 1025.8 1027.7 0.2
02/02:00pm 6.6 1.6 6.5 99 0.0 S 22 26 12 14 1025.5 1027.3 0.2
02/01:47pm 6.4 1.4 6.3 99 0.0 S 22 30 12 16 1025.4 1027.2 0.2
02/01:30pm 6.4 1.9 6.3 99 0.0 SSW 19 24 10 13 1025.6 1027.4 0.2
02/01:20pm 6.4 2.3 6.3 99 0.0 SSW 17 20 9 11 1025.6 1027.4 0.2
02/01:00pm 6.0 2.2 6.0 100 0.0 SSW 15 19 8 10 1026.0 1027.8 0.2
02/12:30pm 6.0 1.9 6.0 100 0.0 SSW 17 22 9 12 1026.5 1028.3 0.2
02/12:00pm 5.7 1.1 5.7 100 0.0 SSW 19 24 10 13 1026.6 1028.4 0.2
02/11:30am 5.4 1.5 5.4 100 0.0 SSW 15 22 8 12 1027.3 1029.1 0.0
02/11:00am 5.2 0.5 5.2 100 0.0 SSW 19 22 10 12 1027.6 1029.4 0.0
02/10:30am 4.3 -0.2 4.3 100 0.0 SW 17 22 9 12 1028.1 1030.0 0.0
02/10:00am 3.8 -1.2 3.8 100 0.0 SW 19 22 10 12 1028.1 1030.0 0.0
02/09:30am 3.6 -1.0 3.6 100 0.0 SW 17 20 9 11 1028.4 1030.2 0.0
02/09:00am 3.4 -1.3 3.4 100 0.0 SW 17 20 9 11 1028.1 1030.0 1.8
02/08:30am 2.9 -2.2 2.9 100 0.0 SW 19 22 10 12 1028.1 1030.0 1.8
02/08:00am 2.6 -1.8 2.5 99 0.0 SW 15 20 8 11 1028.1 1030.0 1.8
02/07:30am 2.4 -2.8 2.3 99 0.0 SW 19 26 10 14 1027.9 1029.8 1.6
02/07:00am 2.4 -2.1 2.3 99 0.0 SW 15 20 8 11 1027.9 1029.8 1.6
02/06:30am 2.5 -2.3 2.4 99 0.0 SSW 17 19 9 10 1027.7 1029.6 1.6
02/06:00am 2.4 -2.1 2.3 99 0.0 SSW 15 20 8 11 1027.4 1029.2 1.6
02/05:30am 2.5 -2.3 2.4 99 0.0 SW 17 20 9 11 1027.3 1029.1 1.6
02/05:00am 2.4 -2.5 2.3 99 0.0 SW 17 20 9 11 1027.2 1029.0 1.4
02/04:30am 2.4 -2.5 2.3 99 0.0 SW 17 22 9 12 1027.2 1029.0 1.4
02/04:00am 2.4 -2.5 2.3 99 0.0 SW 17 20 9 11 1027.2 1029.0 1.2
02/03:30am 2.4 -2.5 2.3 99 0.0 SW 17 22 9 12 1027.1 1028.9 1.2
02/03:00am 2.3 -2.6 2.2 99 0.0 SW 17 24 9 13 1027.3 1029.1 1.2
02/02:30am 2.4 -2.5 2.3 99 0.0 SW 17 20 9 11 1027.5 1029.3 1.0
02/02:00am 2.3 -2.6 2.2 99 0.0 SW 17 20 9 11 1027.5 1029.3 1.0
02/01:30am 2.4 -2.8 2.3 99 0.0 SW 19 26 10 14 1027.5 1029.3 1.0
02/01:00am 2.4 -2.5 2.3 99 0.0 SW 17 24 9 13 1027.7 1029.6 1.0
02/12:30am 2.4 -2.5 2.3 99 0.0 SW 17 20 9 11 1027.7 1029.6 1.0
02/12:00am 2.4 -2.5 2.3 99 0.0 SW 17 20 9 11 1027.9 1029.8 1.0
 
Date/Time
EST
Temp
°C
App
Temp
°C
Dew
Point
°C
Rel
Hum
%
Delta-T
°C
Wind Press
QNH
hPa
Press
MSL
hPa
Rain since
9am
mm
Dir  Spd
km/h
Gust
km/h
Spd
kts
Gust
kts
01/11:31pm 2.6 -2.2 2.5 99 0.0 SSW 17 20 9 11 1028.1 1030.0 1.0
01/11:30pm 2.6 -2.2 2.5 99 0.0 SSW 17 20 9 11 1028.0 1029.9 1.0
01/11:00pm 2.8 -1.7 2.1 95 0.3 SSW 15 22 8 12 1028.1 1030.0 1.0
01/10:30pm 2.8 -2.0 2.4 97 0.2 SW 17 24 9 13 1028.1 1030.0 1.0
01/10:00pm 2.7 -2.1 2.4 98 0.1 SW 17 22 9 12 1028.3 1030.1 1.0
01/09:30pm 2.8 -2.0 2.7 99 0.0 SW 17 20 9 11 1028.5 1030.3 1.0
01/09:17pm 2.8 -1.6 2.7 99 0.0 SW 15 19 8 10 1028.5 1030.3 1.0
01/09:00pm 2.9 -1.1 2.8 99 0.0 SW 13 17 7 9 1028.7 1030.6 1.0
01/08:51pm 2.9 -1.1 2.8 99 0.0 SW 13 17 7 9 1028.8 1030.7 1.0
01/08:30pm 2.9 -0.7 2.8 99 0.0 SW 11 13 6 7 1028.7 1030.6 1.0
01/08:11pm 2.8 -1.2 2.7 99 0.0 SW 13 17 7 9 1028.5 1030.3 1.0
01/08:08pm 2.8 -1.2 2.7 99 0.0 SSW 13 15 7 8 1028.5 1030.3 1.0
01/08:00pm 2.8 -0.8 2.7 99 0.0 SSW 11 15 6 8 1028.5 1030.3 1.0
01/07:56pm 2.9 -0.3 2.8 99 0.0 SSW 9 13 5 7 1028.6 1030.5 1.0
01/07:30pm 2.8 -1.2 2.7 99 0.0 SSW 13 19 7 10 1028.3 1030.1 1.0
01/07:00pm 2.8 -2.0 2.7 99 0.0 SSW 17 20 9 11 1027.9 1029.8 1.0
01/06:30pm 2.9 -1.1 2.8 99 0.0 SSW 13 17 7 9 1027.7 1029.6 0.8
01/06:08pm 3.1 -0.9 3.0 99 0.0 SSW 13 17 7 9 1027.5 1029.3 0.8
01/06:00pm 3.2 -0.8 3.1 99 0.0 SSW 13 17 7 9 1027.4 1029.2 0.8
01/05:55pm 3.2 -0.8 3.1 99 0.0 SSW 13 17 7 9 1027.4 1029.2 0.8
01/05:44pm 3.1 -0.9 3.0 99 0.0 SSW 13 15 7 8 1027.3 1029.1 0.8
01/05:30pm 3.3 -0.6 3.2 99 0.0 SSW 13 17 7 9 1027.2 1029.0 0.8
01/05:20pm 3.5 -0.8 3.4 99 0.0 SSW 15 19 8 10 1027.1 1028.9 0.8
01/05:19pm 3.5 -0.8 3.4 99 0.0 SSW 15 19 8 10 1027.1 1028.9 0.8
01/05:00pm 3.7 -0.2 3.4 98 0.1 S 13 19 7 10 1027.1 1028.9 0.8
01/04:30pm 4.0 0.1 3.4 96 0.3 S 13 20 7 11 1026.8 1028.7 0.8
01/04:20pm 4.0 -0.2 3.6 97 0.2 S 15 20 8 11 1026.7 1028.6 0.8
01/04:00pm 4.1 -0.1 3.7 97 0.2 SSW 15 24 8 13 1026.6 1028.4 0.8
01/03:51pm 4.1 -0.5 3.5 96 0.3 S 17 24 9 13 1026.7 1028.6 0.8
01/03:30pm 4.2 -1.0 3.5 95 0.3 S 20 28 11 15 1026.6 1028.4 0.8
01/03:11pm 4.4 -0.8 3.8 96 0.3 S 20 26 11 14 1026.5 1028.3 0.8
01/03:09pm 4.4 -0.8 3.8 96 0.3 S 20 26 11 14 1026.5 1028.3 0.8
01/03:00pm 4.4 -1.1 4.0 97 0.2 S 22 32 12 17 1026.5 1028.3 0.8
01/02:30pm 4.6 -0.9 3.9 95 0.3 S 22 30 12 16 1026.4 1028.2 0.4
01/02:00pm 4.8 0.0 4.7 99 0.0 S 19 26 10 14 1026.5 1028.3 0.4
01/01:30pm 4.7 -0.7 4.6 99 0.0 S 22 32 12 17 1026.5 1028.3 0.4
01/01:22pm 4.7 -1.1 4.6 99 0.0 S 24 32 13 17 1026.5 1028.3 0.4
01/01:00pm 4.7 -0.1 4.6 99 0.0 S 19 24 10 13 1026.7 1028.6 0.2
01/12:30pm 4.6 0.2 4.5 99 0.0 S 17 22 9 12 1026.7 1028.6 0.0
01/12:00pm 4.5 0.0 4.4 99 0.0 S 17 22 9 12 1027.2 1029.0 0.0
01/11:30am 4.4 0.7 4.3 99 0.0 SSW 13 17 7 9 1027.4 1029.2 0.0
01/11:00am 4.0 0.2 3.9 99 0.0 SSW 13 17 7 9 1027.5 1029.3 0.0
01/10:30am 4.1 0.3 4.0 99 0.0 SSW 13 19 7 10 1027.7 1029.6 0.0
01/10:00am 3.9 0.1 3.8 99 0.0 SW 13 17 7 9 1027.7 1029.6 0.0
01/09:30am 3.6 -0.7 3.5 99 0.0 SSW 15 17 8 9 1027.6 1029.1 0.0
01/09:00am 3.5 -0.4 3.4 99 0.0 SSW 13 17 7 9 1027.6 1029.1 0.6
01/08:30am 3.1 -0.5 3.0 99 0.0 SSW 11 13 6 7 1027.6 1029.1 0.6
01/08:00am 2.8 -0.5 2.7 99 0.0 SSW 9 13 5 7 1027.6 1029.1 0.6
01/07:58am 3.0 -0.6 2.9 99 0.0 SSW 11 13 6 7 1027.6 1029.1 0.6
01/07:30am 2.8 -1.6 2.7 99 0.0 SW 15 17 8 9 1027.4 1028.9 0.6
01/07:00am 2.6 -1.5 2.5 99 0.0 WSW 13 17 7 9 1027.2 1028.7 0.6
01/06:30am 1.8 0.1 1.7 99 0.0 CALM 0 0 0 0 1026.8 1028.3 0.6
01/06:19am 1.5 -0.3 1.4 99 0.0 CALM 0 0 0 0 1026.7 1028.2 0.6
01/06:00am 1.2 -0.6 1.1 99 0.0 CALM 0 0 0 0 1026.6 1028.1 0.6
01/05:30am 0.8 -1.1 0.7 99 0.0 CALM 0 0 0 0 1026.7 1028.2 0.6
01/05:00am 0.6 -2.6 0.5 99 0.0 SW 7 9 4 5 1026.3 1027.8 0.6
01/04:30am 0.3 -1.7 0.2 99 0.0 CALM 0 6 0 3 1026.0 1027.4 0.6
01/04:00am 0.5 -2.6 0.4 99 0.0 E 6 9 3 5 1026.0 1027.4 0.6
01/03:30am 0.7 -2.9 0.6 99 0.0 SW 9 11 5 6 1025.7 1027.2 0.6
01/03:00am 0.6 -3.0 0.5 99 0.0 SW 9 11 5 6 1025.6 1027.1 0.6
01/02:30am 0.2 -3.5 0.1 99 0.0 SW 9 13 5 7 1025.6 1027.1 0.6
01/02:00am 1.1 -3.2 1.0 99 0.0 WSW 13 17 7 9 1025.7 1027.2 0.6
01/01:30am 1.5 -2.7 1.4 99 0.0 SW 13 15 7 8 1025.6 1027.1 0.6
01/01:00am 3.3 -0.6 3.2 99 0.0 SW 13 15 7 8 1025.7 1027.2 0.6
01/12:30am 3.6 0.5 3.5 99 0.0 SW 9 11 5 6 1026.2 1027.7 0.6
01/12:00am 3.3 1.5 3.2 99 0.0 SW 2 7 1 4 1026.3 1027.8 0.6
 
Date/Time
EST
Temp
°C
App
Temp
°C
Dew
Point
°C
Rel
Hum
%
Delta-T
°C
Wind Press
QNH
hPa
Press
MSL
hPa
Rain since
9am
mm
Dir  Spd
km/h
Gust
km/h
Spd
kts
Gust
kts
30/11:30pm 3.6 0.5 3.5 99 0.0 WSW 9 11 5 6 1026.3 1027.8 0.6
30/11:00pm 3.2 -0.8 3.1 99 0.0 WSW 13 15 7 8 1026.3 1027.8 0.4
30/10:30pm 2.4 -0.9 2.3 99 0.0 WSW 9 11 5 6 1026.0 1027.4 0.4
30/10:26pm 2.6 -0.3 2.5 99 0.0 SW 7 9 4 5 1025.8 1027.3 0.4
30/10:00pm 3.5 0.7 3.4 99 0.0 WSW 7 9 4 5 1025.8 1027.3 0.4
30/09:38pm 3.1 -0.1 3.0 99 0.0 SW 9 13 5 7 1025.7 1027.2 0.4
30/09:30pm 3.0 -0.6 2.9 99 0.0 SW 11 13 6 7 1025.7 1027.2 0.4
30/09:00pm 3.6 0.9 3.5 99 0.0 SW 7 9 4 5 1025.7 1027.2 0.4
30/08:30pm 4.0 1.3 3.9 99 0.0 WSW 7 7 4 4 1025.6 1027.1 0.4
30/08:00pm 4.0 1.5 3.7 98 0.1 SW 6 7 3 4 1025.4 1026.9 0.2
30/07:30pm 4.3 1.2 3.7 96 0.3 WSW 9 11 5 6 1025.2 1026.7 0.0
30/07:00pm 4.6 1.5 3.6 93 0.4 SW 9 13 5 7 1024.9 1026.3 0.0
30/06:30pm 4.5 0.6 3.5 93 0.4 SW 13 17 7 9 1024.3 1025.8 0.0
30/06:00pm 4.9 1.0 3.2 89 0.7 SSW 13 17 7 9 1024.2 1025.7 0.0
30/05:30pm 5.0 2.1 2.7 85 1.0 SSW 7 9 4 5 1023.7 1025.1 0.0
30/05:00pm 5.8 2.3 3.3 84 1.1 SW 11 11 6 6 1023.4 1024.9 0.0
30/04:30pm 6.1 2.2 3.3 82 1.2 SW 13 19 7 10 1023.4 1024.9 0.0
30/04:00pm 6.7 3.0 2.6 75 1.8 SW 11 13 6 7 1023.1 1024.5 0.0
30/03:30pm 7.6 4.3 2.3 69 2.3 S 9 13 5 7 1022.9 1024.3 0.0
30/03:00pm 8.9 6.2 3.5 69 2.5 S 7 11 4 6 1023.0 1024.4 0.0
30/02:30pm 8.1 3.8 3.0 70 2.3 SSW 15 17 8 9 1023.1 1024.5 0.0
30/02:00pm 8.3 5.4 2.5 67 2.6 SW 7 11 4 6 1022.9 1024.3 0.0
30/01:30pm 8.4 5.5 2.6 67 2.6 SSW 7 9 4 5 1023.0 1024.4 0.0
30/01:00pm 8.4 5.5 2.6 67 2.6 WSW 7 13 4 7 1023.1 1024.5 0.0
30/12:30pm 7.9 4.9 2.2 67 2.5 N 7 9 4 5 1023.1 1024.5 0.0
30/12:00pm 8.8 5.3 3.4 69 2.5 NNE 11 15 6 8 1022.9 1024.3 0.0
30/11:30am 8.2 4.9 2.7 68 2.5 NNE 9 15 5 8 1023.2 1024.7 0.0
30/11:00am 8.2 5.8 2.2 66 2.6 NNW 4 9 2 5 1023.6 1025.0 0.0
30/10:30am 7.0 4.7 2.5 73 2.0 SSE 4 9 2 5 1023.9 1025.3 0.0
30/10:00am 6.2 3.9 2.7 78 1.5 W 4 9 2 5 1023.9 1025.3 0.0
30/09:30am 5.2 2.4 2.9 85 1.0 WSW 7 11 4 6 1023.9 1025.3 0.0
30/09:00am 5.1 1.5 2.8 85 1.0 WSW 11 17 6 9 1023.6 1025.0 0.2
30/08:30am 4.5 0.2 3.0 90 0.7 WSW 15 19 8 10 1023.8 1025.2 0.2
30/08:00am 3.7 -1.5 2.5 92 0.5 WSW 19 24 10 13 1023.4 1024.9 0.2
30/07:30am 3.2 -1.2 2.8 97 0.2 WSW 15 20 8 11 1023.3 1024.8 0.2
30/07:00am 1.8 -1.1 1.2 96 0.2 SSW 6 9 3 5 1023.4 1024.9 0.0
30/06:30am 1.6 -2.7 0.9 95 0.3 S 13 13 7 7 1023.1 1024.5 0.0
30/06:00am 0.7 -2.0 0.3 97 0.2 SW 4 7 2 4 1022.6 1024.0 0.0
30/05:30am 0.3 -1.7 -0.1 97 0.2 CALM 0 0 0 0 1022.2 1023.6 0.0
30/05:00am -0.2 -2.3 -0.9 95 0.3 CALM 0 0 0 0 1021.3 1022.6 0.0
30/04:30am 0.1 -2.0 -0.7 94 0.3 CALM 0 0 0 0 1020.7 1022.1 0.0
30/04:00am 0.2 -1.9 -0.5 95 0.3 CALM 0 0 0 0 1020.9 1022.3 0.0
30/03:30am 0.2 -1.9 -0.5 95 0.3 CALM 0 0 0 0 1020.8 1022.2 0.0
30/03:00am 0.2 -1.9 -0.5 95 0.3 CALM 0 0 0 0 1020.7 1022.1 0.0
30/02:30am 0.5 -1.9 -0.2 95 0.3 NNE 2 7 1 4 1020.8 1022.2 0.0
30/02:00am 0.6 -1.5 -0.5 92 0.4 CALM 0 0 0 0 1020.8 1022.2 0.0
30/01:30am 0.9 -1.1 -0.1 93 0.4 CALM 0 0 0 0 1020.8 1022.2 0.0
30/01:00am 0.8 -2.5 -0.2 93 0.4 WSW 7 11 4 6 1020.5 1021.9 0.0
30/12:30am 0.8 -2.6 -0.3 92 0.4 ENE 7 11 4 6 1020.8 1022.2 0.0
30/12:00am 1.1 -0.9 -0.2 91 0.5 CALM 0 9 0 5 1020.8 1022.2 0.0
 
Date/Time
EST
Temp
°C
App
Temp
°C
Dew
Point
°C
Rel
Hum
%
Delta-T
°C
Wind Press
QNH
hPa
Press
MSL
hPa
Rain since
9am
mm
Dir  Spd
km/h
Gust
km/h
Spd
kts
Gust
kts
29/11:30pm 0.9 -1.9 -0.4 91 0.5 NW 4 11 2 6 1020.9 1022.3 0.0
29/11:00pm 0.9 -1.9 -0.7 89 0.6 S 4 6 2 3 1021.0 1022.4 0.0
29/10:30pm 1.4 -1.5 -1.0 84 0.9 NNE 4 6 2 3 1020.9 1022.3 0.0
29/10:00pm 2.0 -0.5 -0.7 82 1.0 S 2 9 1 5 1020.7 1022.1 0.0
29/09:30pm 2.4 -1.0 -0.7 80 1.2 NNE 7 9 4 5 1020.7 1022.1 0.0
29/09:00pm 2.5 -1.2 0.1 84 0.9 N 9 11 5 6 1020.5 1021.9 0.0
29/08:30pm 2.0 -0.1 -0.6 83 1.0 CALM 0 0 0 0 1020.6 1022.0 0.0
29/08:00pm 2.2 0.1 -1.1 79 1.3 CALM 0 7 0 4 1020.8 1022.2 0.0
29/07:30pm 3.2 1.1 -1.0 74 1.6 CALM 0 0 0 0 1020.6 1022.0 0.0
29/07:00pm 4.5 1.8 0.1 73 1.8 NE 4 7 2 4 1020.6 1022.0 0.0
29/06:30pm 5.2 1.9 0.0 69 2.1 NW 7 13 4 7 1020.9 1022.3 0.0
29/06:00pm 5.3 1.3 0.5 71 2.0 NW 11 15 6 8 1020.9 1022.3 0.0
29/05:30pm 5.8 2.7 0.4 68 2.2 SW 6 11 3 6 1020.5 1021.9 0.0
29/05:00pm 6.8 1.2 1.1 67 2.4 NW 20 26 11 14 1020.2 1021.5 0.0
29/04:30pm 8.0 3.4 1.4 63 2.9 NW 15 19 8 10 1020.2 1021.5 0.0

Other formats

Comma delimited format used in spreadsheet applications
http://www.bom.gov.au/fwo/IDN60801/IDN60801.94921.axf

JavaScript Object Notation format (JSON) in row-major order
http://www.bom.gov.au/fwo/IDN60801/IDN60801.94921.json

Data quality

Most of these data are generated automatically and are frequently updated. Quality checks on data are not normally performed. It is possible for incorrect values to appear. Refer to information at About Latest Weather Observations and please check the disclaimer before using these data.